Time;durP1;ratioP1;P1;durP2;ratioP2;P2;SDS_P1;SDS_P2;PMS_P1;PMS_P2;Temp;Humidity;BMP_temperature;BMP_pressure;BME280_temperature;BME280_humidity;BME280_pressure;Samples;Min_cycle;Max_cycle;Signal;HPM_P1;HPM_P2
2021/12/22 00:00:50;;;;;;;74.50;19.48;;;0.90;99.90;;;;;;4970057;28;20147;-88
2021/12/22 00:03:18;;;;;;;66.07;17.77;;;0.90;99.90;;;;;;4971543;28;20130;-88
2021/12/22 00:05:47;;;;;;;71.38;17.27;;;0.90;99.90;;;;;;4978289;28;20046;-88
2021/12/22 00:08:15;;;;;;;79.20;19.13;;;1.30;99.90;;;;;;5001294;28;20057;-88
2021/12/22 00:10:43;;;;;;;65.65;18.52;;;0.80;99.90;;;;;;4975077;28;20074;-88
2021/12/22 00:13:10;;;;;;;81.45;19.38;;;0.90;99.90;;;;;;4976552;28;20054;-89
2021/12/22 00:15:38;;;;;;;77.97;20.65;;;1.00;99.90;;;;;;4989581;28;20102;-88
2021/12/22 00:18:05;;;;;;;76.03;18.55;;;1.00;99.90;;;;;;4997269;28;20082;-88
2021/12/22 00:20:32;;;;;;;79.93;19.38;;;0.90;99.90;;;;;;5011444;28;20125;-89
2021/12/22 00:23:00;;;;;;;77.78;19.70;;;0.80;99.90;;;;;;5010869;28;20108;-87
2021/12/22 00:25:27;;;;;;;76.22;20.23;;;1.00;99.90;;;;;;4995880;28;20169;-88
2021/12/22 00:27:55;;;;;;;79.13;20.55;;;1.10;99.90;;;;;;4994050;28;20070;-87
2021/12/22 00:30:25;;;;;;;75.68;19.10;;;1.00;99.90;;;;;;4994505;28;20085;-88
2021/12/22 00:32:55;;;;;;;78.78;19.52;;;1.20;99.90;;;;;;4971035;28;20085;-87
2021/12/22 00:35:27;;;;;;;77.13;20.75;;;1.10;99.90;;;;;;4962054;28;20507;-87
2021/12/22 00:37:54;;;;;;;78.00;20.15;;;1.10;99.90;;;;;;5006940;28;20137;-87
2021/12/22 00:40:22;;;;;;;83.78;20.85;;;1.10;99.90;;;;;;4979753;28;20109;-87
2021/12/22 00:42:49;;;;;;;73.90;19.58;;;1.10;99.90;;;;;;4981251;28;20060;-88
2021/12/22 00:45:18;;;;;;;73.68;20.60;;;1.10;99.90;;;;;;4986972;28;20062;-88
2021/12/22 00:47:44;;;;;;;77.07;19.67;;;1.20;99.90;;;;;;4993939;28;20070;-87
2021/12/22 00:50:11;;;;;;;68.30;19.27;;;1.00;99.90;;;;;;4984201;28;20452;-87
2021/12/22 00:52:38;;;;;;;65.68;18.80;;;1.20;99.90;;;;;;4987043;28;20058;-87
2021/12/22 00:55:06;;;;;;;74.53;20.48;;;1.30;99.90;;;;;;4983290;28;20047;-87
2021/12/22 00:57:34;;;;;;;75.35;19.95;;;1.20;99.90;;;;;;4974691;28;20162;-87
2021/12/22 01:00:02;;;;;;;65.75;19.60;;;1.10;99.90;;;;;;4974413;28;20089;-87
2021/12/22 01:02:29;;;;;;;75.38;19.88;;;1.20;99.90;;;;;;4975313;28;20460;-87
2021/12/22 01:04:56;;;;;;;55.22;18.30;;;1.10;99.90;;;;;;4980991;28;20074;-86
2021/12/22 01:07:27;;;;;;;56.47;18.70;;;1.00;99.90;;;;;;4981094;28;20728;-88
2021/12/22 01:10:18;;;;;;;68.97;18.95;;;1.10;99.90;;;;;;4974490;28;20765;-88
2021/12/22 01:12:45;;;;;;;53.15;18.00;;;0.90;99.90;;;;;;4992499;28;20074;-88
2021/12/22 01:15:12;;;;;;;63.53;19.10;;;1.00;99.90;;;;;;4978690;28;20051;-88
2021/12/22 01:17:49;;;;;;;69.65;22.02;;;1.10;99.90;;;;;;4973942;28;20055;-87
2021/12/22 01:20:25;;;;;;;63.00;19.13;;;0.90;99.90;;;;;;4989542;28;20088;-87
2021/12/22 01:23:01;;;;;;;;;;;1.00;99.90;;;;;;4993360;28;20084;-87
2021/12/22 01:25:30;;;;;;;57.15;18.13;;;0.80;99.90;;;;;;4976700;28;19930;-87
2021/12/22 01:27:58;;;;;;;55.65;18.60;;;1.00;99.90;;;;;;4979231;28;20089;-87
2021/12/22 01:30:29;;;;;;;61.08;18.95;;;1.00;99.90;;;;;;4972269;28;20082;-87
2021/12/22 01:32:59;;;;;;;66.80;18.20;;;1.00;99.90;;;;;;4953125;29;20134;-86
2021/12/22 01:35:28;;;;;;;76.43;20.00;;;0.80;99.90;;;;;;4977463;28;20433;-87
2021/12/22 01:37:56;;;;;;;64.85;18.58;;;1.00;99.90;;;;;;4973654;28;20085;-87
2021/12/22 01:40:23;;;;;;;70.32;19.20;;;1.10;99.90;;;;;;4973332;28;20239;-87
2021/12/22 01:43:14;;;;;;;68.75;19.20;;;1.20;99.90;;;;;;4981571;28;20085;-87
2021/12/22 01:51:09;;;;;;;69.78;17.80;;;0.90;99.90;;;;;;4962513;28;20050;-87
2021/12/22 01:53:44;;;;;;;70.72;17.63;;;1.00;99.90;;;;;;4996763;28;20078;-88
2021/12/22 01:58:46;;;;;;;;;;;1.10;99.90;;;;;;4977787;28;20085;-88
2021/12/22 02:01:15;;;;;;;53.90;17.08;;;1.00;99.90;;;;;;4992909;28;19969;-88
2021/12/22 02:03:44;;;;;;;76.05;19.52;;;1.00;99.90;;;;;;4976260;28;20105;-87
2021/12/22 02:06:12;;;;;;;64.88;19.20;;;1.00;99.90;;;;;;4980043;28;20411;-88
2021/12/22 02:08:40;;;;;;;76.00;20.80;;;1.00;99.90;;;;;;4979974;28;20050;-88
2021/12/22 02:11:22;;;;;;;78.60;18.95;;;0.90;99.90;;;;;;4978205;28;20057;-89
2021/12/22 02:14:02;;;;;;;59.00;16.33;;;1.00;99.90;;;;;;4984308;28;20093;-88
2021/12/22 02:16:35;;;;;;;75.03;19.58;;;1.00;99.90;;;;;;4979718;28;20051;-89
2021/12/22 02:19:04;;;;;;;64.35;18.17;;;1.10;99.90;;;;;;4975693;28;20055;-89
2021/12/22 02:21:37;;;;;;;70.03;18.52;;;0.80;99.90;;;;;;4976734;28;20133;-88
2021/12/22 02:24:04;;;;;;;63.80;17.90;;;0.90;99.90;;;;;;4971796;28;20489;-88
2021/12/22 02:26:43;;;;;;;76.15;19.70;;;1.20;99.90;;;;;;4956465;29;20129;-88
2021/12/22 02:29:34;;;;;;;82.15;20.63;;;1.00;99.90;;;;;;4965119;28;20137;-88
2021/12/22 02:32:07;;;;;;;68.95;19.15;;;1.00;99.90;;;;;;4976095;28;20264;-88
2021/12/22 02:34:41;;;;;;;74.43;20.17;;;1.00;99.90;;;;;;4966737;28;20050;-88
2021/12/22 02:37:14;;;;;;;65.65;19.67;;;1.00;99.90;;;;;;4979592;28;20146;-89
2021/12/22 02:39:46;;;;;;;77.68;20.95;;;1.10;99.90;;;;;;4976316;28;20058;-89
2021/12/22 02:42:14;;;;;;;74.80;20.48;;;1.10;99.90;;;;;;4977415;28;20062;-89
2021/12/22 02:44:40;;;;;;;67.78;19.65;;;0.80;99.90;;;;;;4976700;28;20125;-89
2021/12/22 02:47:22;;;;;;;84.15;22.67;;;1.00;99.90;;;;;;4976953;28;20101;-89
2021/12/22 02:49:50;;;;;;;76.20;22.75;;;1.00;99.90;;;;;;4983664;28;20180;-89
2021/12/22 02:52:18;;;;;;;68.25;19.77;;;0.90;99.90;;;;;;4991968;28;20098;-89
2021/12/22 02:54:55;;;;;;;74.60;20.25;;;0.90;99.90;;;;;;4975462;28;20082;-88
2021/12/22 02:57:33;;;;;;;72.63;20.33;;;0.80;99.90;;;;;;4977035;28;20133;-89
2021/12/22 03:03:10;;;;;;;83.43;21.00;;;0.80;99.90;;;;;;4958573;29;20441;-89
2021/12/22 03:05:39;;;;;;;59.22;19.40;;;0.80;99.90;;;;;;4966535;28;20050;-88
2021/12/22 03:08:06;;;;;;;74.97;21.38;;;0.80;99.90;;;;;;4995599;28;20499;-88
2021/12/22 03:10:38;;;;;;;64.95;19.70;;;0.80;99.90;;;;;;4979640;28;20110;-88
2021/12/22 03:13:05;;;;;;;70.93;20.27;;;0.80;99.90;;;;;;4985993;28;20125;-88
2021/12/22 03:15:32;;;;;;;68.18;23.05;;;0.70;99.90;;;;;;5004922;28;20070;-88
2021/12/22 03:18:00;;;;;;;62.15;19.98;;;0.80;99.90;;;;;;5010338;28;20065;-88
2021/12/22 03:20:27;;;;;;;72.07;20.65;;;0.80;99.90;;;;;;5009953;28;20132;-88
2021/12/22 03:22:54;;;;;;;74.55;19.10;;;0.70;99.90;;;;;;5010712;28;20078;-88
2021/12/22 03:25:26;;;;;;;65.13;19.33;;;0.70;99.90;;;;;;4993106;28;20080;-87
2021/12/22 03:27:53;;;;;;;71.95;20.48;;;0.80;99.90;;;;;;4974503;28;20487;-88
2021/12/22 03:30:23;;;;;;;57.75;19.63;;;0.80;99.90;;;;;;4974116;28;20051;-88
2021/12/22 03:32:50;;;;;;;74.85;21.38;;;0.80;99.90;;;;;;4974138;28;20853;-88
2021/12/22 03:35:20;;;;;;;73.40;20.35;;;0.90;99.90;;;;;;4983685;28;20080;-88
2021/12/22 03:37:53;;;;;;;69.60;18.85;;;0.80;99.90;;;;;;4988346;28;20073;-87
2021/12/22 03:40:22;;;;;;;77.82;19.80;;;0.90;99.90;;;;;;4987435;28;20078;-87
2021/12/22 03:42:49;;;;;;;64.78;20.02;;;0.80;99.90;;;;;;4988363;28;20065;-87
2021/12/22 03:45:16;;;;;;;68.22;20.08;;;0.70;99.90;;;;;;5007135;28;20049;-87
2021/12/22 03:47:44;;;;;;;72.18;18.73;;;0.80;99.90;;;;;;5013997;28;20046;-84
2021/12/22 03:50:15;;;;;;;63.17;19.05;;;0.90;99.90;;;;;;5010576;28;20063;-88
2021/12/22 03:52:42;;;;;;;68.25;18.73;;;1.00;99.90;;;;;;4991984;28;20058;-87
2021/12/22 03:55:10;;;;;;;64.47;18.85;;;0.60;99.90;;;;;;4978257;28;20035;-88
2021/12/22 03:57:36;;;;;;;65.03;18.20;;;0.70;99.90;;;;;;4957304;29;20055;-88
2021/12/22 04:00:06;;;;;;;67.35;17.70;;;0.60;99.90;;;;;;4957214;29;20079;-88
2021/12/22 04:02:33;;;;;;;58.70;16.73;;;0.70;99.90;;;;;;4955886;29;20051;-88
2021/12/22 04:05:01;;;;;;;72.63;19.13;;;0.40;99.90;;;;;;4975445;28;20130;-87
2021/12/22 04:07:28;;;;;;;62.20;16.67;;;0.60;99.90;;;;;;4983791;28;20125;-88
2021/12/22 04:09:54;;;;;;;64.28;16.45;;;0.50;99.90;;;;;;4990094;28;20081;-88
2021/12/22 04:12:21;;;;;;;62.90;15.80;;;0.60;99.90;;;;;;4974257;28;20093;-88
2021/12/22 04:14:48;;;;;;;63.92;16.38;;;0.10;99.90;;;;;;4987787;28;20074;-88
2021/12/22 04:17:15;;;;;;;56.80;15.88;;;0.50;99.90;;;;;;4954913;29;20051;-87
2021/12/22 04:19:42;;;;;;;52.78;15.90;;;0.60;99.90;;;;;;4954132;29;20086;-88
2021/12/22 04:22:09;;;;;;;65.40;15.05;;;0.40;99.90;;;;;;4968748;28;20150;-87
2021/12/22 04:24:40;;;;;;;58.80;13.73;;;0.50;99.90;;;;;;4974279;28;20047;-88
2021/12/22 04:27:12;;;;;;;53.67;14.40;;;0.40;99.90;;;;;;4974887;28;20567;-87
2021/12/22 04:29:42;;;;;;;48.97;14.02;;;0.50;99.90;;;;;;4973819;28;20070;-88
2021/12/22 04:32:16;;;;;;;55.83;15.23;;;0.50;99.90;;;;;;4974971;28;20121;-88
2021/12/22 04:34:43;;;;;;;55.70;15.70;;;0.20;99.90;;;;;;4979202;28;20744;-88
2021/12/22 04:37:09;;;;;;;53.50;14.90;;;0.40;99.90;;;;;;5000048;28;20058;-87
2021/12/22 04:39:36;;;;;;;58.30;13.80;;;0.30;99.90;;;;;;4974365;28;20086;-88
2021/12/22 04:42:03;;;;;;;59.83;15.15;;;0.80;99.90;;;;;;4966702;28;21510;-87
2021/12/22 04:44:31;;;;;;;50.33;14.48;;;0.50;99.90;;;;;;4988826;28;20077;-87
2021/12/22 04:47:11;;;;;;;58.17;14.20;;;0.30;99.90;;;;;;4968816;28;20039;-88
2021/12/22 04:49:43;;;;;;;50.13;13.75;;;0.30;99.90;;;;;;4973781;28;20773;-88
2021/12/22 04:52:15;;;;;;;49.17;13.50;;;0.20;99.90;;;;;;4974532;28;20480;-88
2021/12/22 04:55:01;;;;;;;51.65;14.20;;;0.30;99.90;;;;;;4986901;28;20113;-87
2021/12/22 04:57:32;;;;;;;46.50;12.75;;;0.30;99.90;;;;;;4989089;28;20554;-88
2021/12/22 05:00:00;;;;;;;60.35;15.10;;;0.40;99.90;;;;;;4974360;28;20104;-88
2021/12/22 05:02:27;;;;;;;59.63;15.15;;;0.30;99.90;;;;;;4974354;28;20464;-89
2021/12/22 05:05:22;;;;;;;55.17;13.80;;;0.30;99.90;;;;;;4980622;28;20038;-89
2021/12/22 05:07:49;;;;;;;45.10;13.15;;;0.40;99.90;;;;;;5009026;28;20086;-88
2021/12/22 05:10:17;;;;;;;49.17;13.48;;;0.10;99.90;;;;;;5008702;28;20078;-87
2021/12/22 05:12:46;;;;;;;58.25;15.40;;;0.20;99.90;;;;;;4986107;28;20078;-87
2021/12/22 05:15:14;;;;;;;44.83;13.38;;;0.20;99.90;;;;;;4981662;28;20085;-87
2021/12/22 05:20:16;;;;;;;53.75;13.90;;;0.20;99.90;;;;;;4983130;28;20627;-87
2021/12/22 05:22:43;;;;;;;49.17;12.25;;;0.20;99.90;;;;;;4972524;28;20544;-87
2021/12/22 05:25:11;;;;;;;51.45;13.05;;;0.30;99.90;;;;;;4963302;28;20081;-87
2021/12/22 05:27:38;;;;;;;50.78;13.32;;;0.30;99.90;;;;;;4968672;28;20069;-88
2021/12/22 05:30:07;;;;;;;50.53;13.20;;;0.20;99.90;;;;;;4965042;28;20048;-88
2021/12/22 05:32:35;;;;;;;49.10;13.90;;;0.30;99.90;;;;;;4987261;28;20058;-88
2021/12/22 05:35:05;;;;;;;46.10;12.50;;;0.20;99.90;;;;;;4970004;28;20137;-88
2021/12/22 05:37:32;;;;;;;43.15;12.25;;;0.40;99.90;;;;;;4972609;28;20503;-88
2021/12/22 05:39:59;;;;;;;52.63;12.60;;;0.30;99.90;;;;;;4975195;28;20492;-88
2021/12/22 05:42:27;;;;;;;47.15;13.07;;;0.10;99.90;;;;;;4974964;28;20146;-87
2021/12/22 05:44:54;;;;;;;51.35;12.45;;;0.70;99.90;;;;;;4984862;28;20078;-87
2021/12/22 05:47:21;;;;;;;46.97;13.35;;;0.20;99.90;;;;;;5008254;28;20046;-87
2021/12/22 05:49:49;;;;;;;57.88;13.20;;;0.10;99.90;;;;;;4981675;28;20145;-87
2021/12/22 05:52:16;;;;;;;55.67;14.55;;;0.20;99.90;;;;;;4979424;28;20103;-87
2021/12/22 05:54:43;;;;;;;53.38;12.40;;;0.30;99.90;;;;;;4975512;28;20122;-86
2021/12/22 05:57:09;;;;;;;56.30;13.43;;;0.30;99.90;;;;;;4984039;28;20149;-85
2021/12/22 05:59:38;;;;;;;54.13;13.13;;;0.30;99.90;;;;;;4971614;28;20047;-86
2021/12/22 06:02:19;;;;;;;55.17;12.98;;;0.60;99.90;;;;;;4980231;28;20062;-87
2021/12/22 06:04:54;;;;;;;62.45;13.45;;;0.50;99.90;;;;;;4975783;28;20494;-87
2021/12/22 06:07:37;;;;;;;47.10;11.57;;;0.40;99.90;;;;;;4995378;28;20139;-86
2021/12/22 06:10:23;;;;;;;51.70;13.25;;;0.30;99.90;;;;;;4976067;28;20142;-88
2021/12/22 06:12:50;;;;;;;51.42;12.10;;;0.50;99.90;;;;;;4966540;28;20110;-89
2021/12/22 06:18:57;;;;;;;40.95;10.93;;;1.00;99.90;;;;;;4927399;29;20051;-86
2021/12/22 06:21:38;;;;;;;45.42;13.38;;;0.20;99.90;;;;;;4906310;29;20152;-87
2021/12/22 06:24:18;;;;;;;45.55;11.90;;;0.50;99.90;;;;;;4913025;29;20047;-87
2021/12/22 06:30:52;;;;;;;46.55;10.60;;;0.60;99.90;;;;;;4888647;29;20081;-86
2021/12/22 06:33:22;;;;;;;51.28;11.80;;;0.40;99.90;;;;;;4880847;29;20150;-88
2021/12/22 06:35:49;;;;;;;49.40;11.32;;;0.20;99.90;;;;;;4897163;29;20201;-89
2021/12/22 06:38:16;;;;;;;36.47;10.10;;;0.00;99.90;;;;;;4947351;29;20129;-90
2021/12/22 06:40:43;;;;;;;48.63;11.85;;;0.10;99.90;;;;;;4930098;29;20060;-90
2021/12/22 06:43:10;;;;;;;41.00;10.20;;;-0.20;99.90;;;;;;4904240;29;20486;-89
2021/12/22 06:45:49;;;;;;;42.60;11.13;;;0.00;99.90;;;;;;4933400;29;20102;-89
2021/12/22 06:48:16;;;;;;;41.50;11.30;;;0.40;99.90;;;;;;4924222;29;20504;-89
2021/12/22 06:50:43;;;;;;;39.95;10.93;;;-0.10;99.90;;;;;;4938791;29;20055;-89
2021/12/22 06:53:10;;;;;;;39.33;9.65;;;0.70;99.90;;;;;;4971098;28;20047;-89
2021/12/22 06:55:37;;;;;;;43.08;9.20;;;0.80;99.90;;;;;;4976054;28;20054;-91
2021/12/22 06:58:04;;;;;;;32.47;10.38;;;0.00;99.90;;;;;;4976421;28;20043;-89
2021/12/22 07:00:36;;;;;;;42.63;11.27;;;0.40;99.90;;;;;;4975848;28;20055;-90
2021/12/22 07:03:06;;;;;;;42.13;10.82;;;-0.10;99.90;;;;;;4975585;28;20055;-90
2021/12/22 07:05:35;;;;;;;46.03;11.88;;;0.80;99.90;;;;;;4974383;28;20051;-90
2021/12/22 07:08:02;;;;;;;38.88;9.73;;;-0.20;99.90;;;;;;4990529;28;20050;-89
2021/12/22 07:10:47;;;;;;;34.53;9.38;;;0.20;99.90;;;;;;4986992;28;20047;-89
2021/12/22 07:13:19;;;;;;;30.80;8.55;;;0.30;99.90;;;;;;4975698;28;20066;-90
2021/12/22 07:15:47;;;;;;;28.98;8.98;;;0.50;99.90;;;;;;4988297;28;20450;-91
2021/12/22 07:18:14;;;;;;;27.02;8.75;;;-0.10;99.90;;;;;;4994214;28;20074;-91
2021/12/22 07:20:41;;;;;;;27.80;9.23;;;-0.30;99.90;;;;;;4976467;28;20054;-90
2021/12/22 07:23:17;;;;;;;35.55;9.30;;;-0.20;99.90;;;;;;4976125;28;20051;-90
2021/12/22 07:25:50;;;;;;;30.73;9.30;;;0.20;99.90;;;;;;4963047;28;20505;-90
2021/12/22 07:28:18;;;;;;;31.00;8.40;;;0.30;99.90;;;;;;4992065;28;20046;-89
2021/12/22 07:30:51;;;;;;;42.15;9.63;;;0.10;99.90;;;;;;4976407;28;20101;-89
2021/12/22 07:33:18;;;;;;;32.35;9.48;;;0.80;99.90;;;;;;4977720;28;20066;-90
2021/12/22 07:35:53;;;;;;;32.58;9.25;;;0.50;99.90;;;;;;4977807;28;20144;-90
2021/12/22 07:38:44;;;;;;;34.97;8.93;;;0.10;99.90;;;;;;4992892;28;20487;-88
2021/12/22 07:41:21;;;;;;;37.97;8.23;;;0.00;99.90;;;;;;4995200;28;20058;-90
2021/12/22 07:43:48;;;;;;;29.85;8.27;;;0.40;99.90;;;;;;4990296;28;20062;-89
2021/12/22 07:46:15;;;;;;;37.95;8.95;;;0.40;99.90;;;;;;4976552;28;20085;-89
2021/12/22 07:48:42;;;;;;;35.53;9.35;;;-0.10;99.90;;;;;;4977092;28;20476;-89
2021/12/22 07:51:09;;;;;;;31.38;8.75;;;-0.30;99.90;;;;;;4977255;28;20408;-89
2021/12/22 07:53:36;;;;;;;29.85;8.57;;;-0.10;99.90;;;;;;4969644;28;20051;-90
2021/12/22 07:56:03;;;;;;;33.88;8.95;;;-0.10;99.90;;;;;;4959937;28;20142;-89
2021/12/22 07:58:44;;;;;;;39.17;9.48;;;0.00;99.90;;;;;;4993331;28;20054;-90
2021/12/22 08:01:10;;;;;;;43.63;8.77;;;0.30;99.90;;;;;;4976711;28;20055;-91
2021/12/22 08:03:41;;;;;;;29.42;8.52;;;0.80;99.90;;;;;;4976561;28;20051;-90
2021/12/22 08:06:13;;;;;;;36.57;9.60;;;0.20;99.90;;;;;;4977635;28;20053;-90
2021/12/22 08:08:40;;;;;;;33.88;9.60;;;0.40;99.90;;;;;;4976676;28;20074;-90
2021/12/22 08:11:09;;;;;;;35.50;9.65;;;-0.20;99.90;;;;;;4976669;28;20075;-91
2021/12/22 08:13:36;;;;;;;36.88;8.50;;;0.00;99.90;;;;;;4976837;28;20051;-91
2021/12/22 08:16:09;;;;;;;39.80;9.98;;;0.00;99.90;;;;;;4970467;28;20081;-90
2021/12/22 08:18:37;;;;;;;36.13;9.90;;;0.30;99.90;;;;;;4956277;29;20051;-90
2021/12/22 08:21:04;;;;;;;37.78;10.98;;;0.20;99.90;;;;;;4962471;28;20476;-90
2021/12/22 08:23:37;;;;;;;40.60;10.57;;;0.00;99.90;;;;;;4976484;28;20043;-90
2021/12/22 08:26:07;;;;;;;44.47;11.50;;;0.50;99.90;;;;;;4973861;28;20138;-90
2021/12/22 08:28:37;;;;;;;34.90;10.15;;;0.10;99.90;;;;;;4984303;28;20046;-89
2021/12/22 08:31:12;;;;;;;49.13;12.43;;;0.70;99.90;;;;;;5027711;28;20081;-90
2021/12/22 08:33:44;;;;;;;49.58;10.98;;;0.50;99.90;;;;;;5015064;28;20043;-89
2021/12/22 08:39:03;;;;;;;47.00;12.60;;;0.30;99.90;;;;;;4979696;28;20066;-89
2021/12/22 08:41:34;;;;;;;47.80;11.98;;;0.40;99.90;;;;;;4978198;29;20498;-90
2021/12/22 08:47:49;;;;;;;53.78;11.35;;;0.50;99.90;;;;;;4968920;29;20034;-89
2021/12/22 08:50:24;;;;;;;46.28;12.50;;;0.30;99.90;;;;;;4956462;28;20058;-89
2021/12/22 08:52:51;;;;;;;44.33;10.55;;;0.40;99.90;;;;;;4955607;29;20051;-88
2021/12/22 08:55:20;;;;;;;52.17;12.27;;;0.30;99.90;;;;;;4954663;28;20051;-90
2021/12/22 08:57:49;;;;;;;40.78;9.02;;;0.60;99.90;;;;;;4968565;28;20049;-90
2021/12/22 09:00:16;;;;;;;48.85;11.38;;;0.40;99.90;;;;;;4974760;28;20137;-90
2021/12/22 09:02:45;;;;;;;54.70;11.48;;;0.90;99.90;;;;;;4974200;28;20065;-90
2021/12/22 09:05:17;;;;;;;54.72;11.30;;;0.40;99.90;;;;;;4953916;28;20049;-91
2021/12/22 09:07:44;;;;;;;46.28;11.30;;;0.80;99.90;;;;;;4954853;28;20051;-89
2021/12/22 09:10:13;;;;;;;42.10;10.85;;;0.70;99.90;;;;;;4970461;28;20051;-89
2021/12/22 09:12:40;;;;;;;45.88;11.02;;;0.40;99.90;;;;;;4974358;28;20043;-88
2021/12/22 09:15:10;;;;;;;39.75;10.35;;;0.90;99.90;;;;;;4973298;28;20495;-90
2021/12/22 09:17:45;;;;;;;44.15;10.80;;;0.50;99.90;;;;;;4973066;28;20812;-91
2021/12/22 09:20:15;;;;;;;41.50;10.45;;;1.00;99.90;;;;;;4973554;28;20051;-90
2021/12/22 09:22:49;;;;;;;45.15;10.35;;;0.80;99.90;;;;;;4972741;28;20057;-89
2021/12/22 09:25:24;;;;;;;47.25;10.55;;;1.00;99.90;;;;;;4976287;28;20082;-90
2021/12/22 09:27:51;;;;;;;40.72;10.90;;;1.30;99.90;;;;;;4978005;28;20049;-89
2021/12/22 09:30:18;;;;;;;40.17;10.70;;;0.80;99.90;;;;;;5008475;28;20468;-90
2021/12/22 09:32:45;;;;;;;48.22;11.00;;;1.40;99.90;;;;;;5008934;28;20061;-89
2021/12/22 09:35:12;;;;;;;47.17;11.07;;;0.70;99.90;;;;;;4994663;28;20062;-89
2021/12/22 09:37:54;;;;;;;41.92;10.98;;;1.40;99.90;;;;;;4973472;28;20054;-90
2021/12/22 09:40:23;;;;;;;53.70;12.20;;;1.10;99.90;;;;;;4973746;28;20113;-90
2021/12/22 09:43:12;;;;;;;48.67;11.45;;;1.10;99.90;;;;;;4973312;28;20060;-91
2021/12/22 09:45:58;;;;;;;40.60;11.27;;;1.50;99.90;;;;;;4972882;28;20069;-89
2021/12/22 09:48:53;;;;;;;56.08;13.77;;;1.30;99.90;;;;;;4972864;28;20496;-91
2021/12/22 09:53:56;;;;;;;53.63;13.02;;;1.50;99.90;;;;;;4974663;28;20491;-90
2021/12/22 09:56:39;;;;;;;49.22;12.18;;;1.40;99.90;;;;;;4974999;28;20856;-89
2021/12/22 09:59:23;;;;;;;53.05;13.10;;;1.40;99.90;;;;;;4988278;28;20525;-89
2021/12/22 10:02:13;;;;;;;54.78;12.25;;;1.60;99.90;;;;;;4993621;28;20055;-89
2021/12/22 10:04:48;;;;;;;43.85;11.00;;;1.80;99.90;;;;;;5008445;28;20050;-89
2021/12/22 10:07:25;;;;;;;50.25;12.82;;;1.10;99.90;;;;;;5010064;28;20499;-89
2021/12/22 10:10:30;;;;;;;45.15;12.63;;;1.30;99.90;;;;;;5000866;28;20046;-90
2021/12/22 10:13:35;;;;;;;44.90;11.30;;;1.20;99.90;;;;;;4980831;28;20043;-90
2021/12/22 10:16:40;;;;;;;52.80;12.20;;;1.40;99.90;;;;;;4988661;28;20073;-87
2021/12/22 10:19:13;;;;;;;39.45;11.52;;;1.60;99.90;;;;;;4981627;28;20042;-88
2021/12/22 10:22:00;;;;;;;48.30;12.77;;;2.10;99.90;;;;;;4975851;28;20097;-87
2021/12/22 10:25:03;;;;;;;51.97;12.75;;;1.50;99.90;;;;;;4976386;28;20101;-88
2021/12/22 10:28:28;;;;;;;;;;;;;;;;;;;;;
2021/12/22 10:31:10;;;;;;;51.03;12.38;;;1.50;99.90;;;;;;4976590;28;20050;-88
2021/12/22 10:33:41;;;;;;;40.08;11.90;;;1.90;99.90;;;;;;4975569;28;20153;-89
2021/12/22 10:36:24;;;;;;;41.65;11.35;;;1.50;99.90;;;;;;4977305;28;20109;-88
2021/12/22 10:39:00;;;;;;;45.42;12.73;;;1.50;99.90;;;;;;4974887;28;20105;-89
2021/12/22 10:41:29;;;;;;;46.35;13.23;;;1.50;99.90;;;;;;4974816;28;20051;-88
2021/12/22 10:43:56;;;;;;;44.47;13.93;;;1.50;99.90;;;;;;4967153;28;20043;-88
2021/12/22 10:46:32;;;;;;;48.53;13.73;;;2.30;99.90;;;;;;4992094;28;20057;-88
2021/12/22 10:49:17;;;;;;;52.85;15.75;;;1.30;99.90;;;;;;4991703;28;20066;-89
2021/12/22 10:51:57;;;;;;;44.67;13.65;;;1.70;99.90;;;;;;4975432;28;20047;-88
2021/12/22 10:54:36;;;;;;;48.70;13.90;;;1.80;99.90;;;;;;4975017;28;20054;-89
2021/12/22 10:57:09;;;;;;;54.28;14.07;;;2.20;99.90;;;;;;4979452;28;20049;-89
2021/12/22 10:59:53;;;;;;;48.03;13.93;;;1.60;99.90;;;;;;4986146;28;20046;-88
2021/12/22 11:02:35;;;;;;;45.67;13.27;;;2.20;99.90;;;;;;5010768;28;20060;-89
2021/12/22 11:05:18;;;;;;;38.72;12.98;;;1.80;99.90;;;;;;4996130;28;20054;-86
2021/12/22 11:07:48;;;;;;;39.70;11.35;;;1.80;99.90;;;;;;4994927;28;20054;-89
2021/12/22 11:10:29;;;;;;;45.20;12.25;;;1.80;99.90;;;;;;4982733;28;20055;-89
2021/12/22 11:13:19;;;;;;;38.50;12.05;;;1.60;99.90;;;;;;4966484;28;20046;-89
2021/12/22 11:15:50;;;;;;;42.70;12.15;;;1.40;99.90;;;;;;4975008;28;20085;-88
2021/12/22 11:18:31;;;;;;;37.92;10.95;;;1.70;99.90;;;;;;4974762;28;20050;-89
2021/12/22 11:21:35;;;;;;;211.70;42.03;;;1.70;99.90;;;;;;4955679;29;20102;-89
2021/12/22 11:24:06;;;;;;;39.90;11.70;;;1.50;99.90;;;;;;4944637;28;20118;-88
2021/12/22 11:26:33;;;;;;;39.65;10.85;;;1.20;99.90;;;;;;4977417;28;20046;-89
2021/12/22 11:29:00;;;;;;;36.80;11.02;;;2.20;99.90;;;;;;4980650;28;20050;-88
2021/12/22 11:31:30;;;;;;;39.30;10.63;;;1.40;99.90;;;;;;4974912;28;20046;-88
2021/12/22 11:34:25;;;;;;;43.78;12.98;;;2.10;99.90;;;;;;4974694;28;20046;-88
2021/12/22 11:36:52;;;;;;;41.72;11.57;;;2.10;99.90;;;;;;4971614;28;20054;-88
2021/12/22 11:39:19;;;;;;;38.15;10.80;;;2.30;99.90;;;;;;4973974;28;20066;-88
2021/12/22 11:41:56;;;;;;;38.45;12.30;;;1.50;99.90;;;;;;4974731;28;20141;-83
2021/12/22 11:44:28;;;;;;;37.50;12.07;;;1.60;99.90;;;;;;4978573;28;20066;-88
2021/12/22 11:46:57;;;;;;;42.53;11.18;;;1.90;99.90;;;;;;5009966;28;20062;-88
2021/12/22 11:49:27;;;;;;;37.55;11.43;;;1.50;99.90;;;;;;5004670;28;20094;-88
2021/12/22 11:51:54;;;;;;;39.55;11.45;;;1.50;99.90;;;;;;4974465;28;20117;-88
2021/12/22 11:54:27;;;;;;;41.25;12.55;;;1.50;99.90;;;;;;4974090;28;20078;-87
2021/12/22 11:57:01;;;;;;;43.65;13.07;;;1.50;99.90;;;;;;4978448;28;20141;-88
2021/12/22 11:59:38;;;;;;;52.17;14.20;;;1.70;99.90;;;;;;4976939;28;20054;-87
2021/12/22 12:02:43;;;;;;;41.00;13.23;;;1.90;99.90;;;;;;4975098;28;20062;-87
2021/12/22 12:05:24;;;;;;;46.40;14.13;;;1.80;99.90;;;;;;4960532;28;20130;-87
2021/12/22 12:08:16;;;;;;;49.67;14.80;;;1.60;99.90;;;;;;4954700;28;20811;-88
2021/12/22 12:10:54;;;;;;;50.58;14.48;;;1.90;99.90;;;;;;4953998;29;20501;-88
2021/12/22 12:14:00;;;;;;;38.72;13.20;;;2.60;99.90;;;;;;4959061;28;20078;-87
2021/12/22 12:23:27;;;;;;;34.63;12.20;;;1.70;99.90;;;;;;4956477;28;20055;-86
2021/12/22 12:26:06;;;;;;;38.92;11.75;;;1.70;99.90;;;;;;4972812;28;20054;-87
2021/12/22 12:28:51;;;;;;;47.75;11.93;;;2.20;99.90;;;;;;4971683;28;20053;-86
2021/12/22 12:31:45;;;;;;;33.40;11.77;;;1.10;99.90;;;;;;4973621;28;20050;-87
2021/12/22 12:34:24;;;;;;;32.60;10.90;;;1.00;99.90;;;;;;4973846;28;20062;-87
2021/12/22 12:36:51;;;;;;;38.08;11.48;;;0.90;99.90;;;;;;4975109;28;20448;-87
2021/12/22 12:39:56;;;;;;;38.25;10.05;;;1.00;99.90;;;;;;4974898;28;20062;-87
2021/12/22 12:42:23;;;;;;;31.83;10.18;;;1.30;99.90;;;;;;4976026;28;20055;-86
2021/12/22 12:44:52;;;;;;;34.30;11.13;;;1.70;99.90;;;;;;4977775;28;20042;-88
2021/12/22 12:47:21;;;;;;;37.20;11.27;;;2.10;99.90;;;;;;4995681;28;20046;-89
2021/12/22 12:50:39;;;;;;;41.78;11.25;;;1.40;99.90;;;;;;5011519;28;20404;-88
2021/12/22 12:53:44;;;;;;;41.55;11.15;;;1.40;99.90;;;;;;4976023;28;20054;-87
2021/12/22 12:56:43;;;;;;;37.33;10.60;;;1.50;99.90;;;;;;4974102;28;20051;-88
2021/12/22 12:59:16;;;;;;;34.28;10.55;;;1.60;99.90;;;;;;5006699;28;20054;-87
2021/12/22 13:01:50;;;;;;;43.78;11.85;;;2.00;99.90;;;;;;5006827;28;20154;-87
2021/12/22 13:04:27;;;;;;;34.53;11.40;;;1.60;99.90;;;;;;4972839;28;20501;-87
2021/12/22 13:07:02;;;;;;;36.30;12.48;;;2.00;99.90;;;;;;4973840;28;20061;-88
2021/12/22 13:09:32;;;;;;;39.05;11.40;;;1.90;99.90;;;;;;4973841;28;20055;-87
2021/12/22 13:12:33;;;;;;;39.40;12.25;;;1.70;99.90;;;;;;4974284;28;20051;-88
2021/12/22 13:18:38;;;;;;;41.50;11.65;;;1.30;99.90;;;;;;4978307;28;20054;-86
2021/12/22 13:21:34;;;;;;;33.22;10.20;;;1.40;99.90;;;;;;4991605;28;20058;-88
2021/12/22 13:24:35;;;;;;;34.83;9.88;;;1.10;99.90;;;;;;4997068;28;20031;-88
2021/12/22 13:27:02;;;;;;;36.10;9.77;;;1.50;99.90;;;;;;4991715;28;20138;-88
2021/12/22 13:29:29;;;;;;;36.95;11.85;;;1.30;99.90;;;;;;4985574;28;20427;-87
2021/12/22 13:32:08;;;;;;;47.55;12.40;;;1.30;99.90;;;;;;4965829;28;20086;-88
2021/12/22 13:34:46;;;;;;;44.70;9.85;;;1.30;99.90;;;;;;4969301;28;20082;-85
2021/12/22 13:37:16;;;;;;;33.80;10.63;;;1.20;99.90;;;;;;4972815;28;20071;-87
2021/12/22 13:39:45;;;;;;;32.65;9.30;;;1.60;99.90;;;;;;4971842;28;20089;-87
2021/12/22 13:42:18;;;;;;;31.60;10.45;;;1.30;99.90;;;;;;4974683;28;20073;-88
2021/12/22 13:44:51;;;;;;;36.25;11.15;;;1.10;99.90;;;;;;4979467;28;20051;-89
2021/12/22 13:47:20;;;;;;;30.98;10.23;;;1.30;99.90;;;;;;4989390;28;20109;-86
2021/12/22 13:49:49;;;;;;;34.25;11.07;;;1.10;99.90;;;;;;4976750;28;20082;-87